Time;durP1;ratioP1;P1;durP2;ratioP2;P2;SDS_P1;SDS_P2;PMS_P1;PMS_P2;Temp;Humidity;BMP_temperature;BMP_pressure;BME280_temperature;BME280_humidity;BME280_pressure;Samples;Min_cycle;Max_cycle;Signal;HPM_P1;HPM_P2
2023/08/24 00:02:02;;;;;;;5.43;1.70;;;18.90;99.10;;;;;;5040516;28;20030;-74
2023/08/24 00:04:28;;;;;;;5.38;1.17;;;18.90;99.20;;;;;;5038827;28;20020;-74
2023/08/24 00:06:54;;;;;;;2.67;1.95;;;18.80;99.00;;;;;;5050606;28;20062;-74
2023/08/24 00:09:20;;;;;;;2.72;1.83;;;18.80;99.10;;;;;;5044191;28;20029;-74
2023/08/24 00:11:46;;;;;;;10.77;2.45;;;18.80;99.20;;;;;;5050964;28;20025;-74
2023/08/24 00:14:12;;;;;;;4.35;1.95;;;18.80;99.20;;;;;;5041146;28;20075;-73
2023/08/24 00:16:38;;;;;;;3.63;1.77;;;18.80;99.40;;;;;;5047996;28;20033;-74
2023/08/24 00:19:04;;;;;;;7.60;1.77;;;18.80;99.50;;;;;;5056111;28;20028;-74
2023/08/24 00:21:29;;;;;;;5.40;1.60;;;18.80;99.50;;;;;;5049529;28;20026;-74
2023/08/24 00:23:55;;;;;;;10.70;1.80;;;18.80;99.50;;;;;;5045139;28;20026;-74
2023/08/24 00:26:20;;;;;;;4.60;2.00;;;18.70;99.70;;;;;;5055531;28;20356;-74
2023/08/24 00:28:46;;;;;;;12.35;2.13;;;18.80;99.60;;;;;;5054720;28;20040;-74
2023/08/24 00:31:12;;;;;;;7.15;2.40;;;18.70;99.40;;;;;;5053554;28;20383;-74
2023/08/24 00:33:37;;;;;;;5.10;2.08;;;18.70;99.50;;;;;;5056165;28;20527;-74
2023/08/24 00:36:05;;;;;;;3.85;1.52;;;18.70;99.50;;;;;;5054015;28;20174;-74
2023/08/24 00:38:31;;;;;;;4.22;2.17;;;18.70;99.60;;;;;;5050444;28;20037;-74
2023/08/24 00:40:58;;;;;;;3.92;2.25;;;18.70;99.60;;;;;;5049398;28;20021;-74
2023/08/24 00:43:25;;;;;;;7.22;2.35;;;18.60;99.70;;;;;;5053201;28;20079;-74
2023/08/24 00:45:51;;;;;;;2.60;1.67;;;18.60;99.70;;;;;;5050182;28;20025;-74
2023/08/24 00:48:18;;;;;;;3.95;1.90;;;18.60;99.70;;;;;;5051592;28;20407;-74
2023/08/24 00:50:44;;;;;;;3.67;1.65;;;18.60;99.80;;;;;;5050485;28;20021;-74
2023/08/24 00:53:10;;;;;;;4.78;1.60;;;18.60;99.90;;;;;;5053077;28;20091;-74
2023/08/24 00:55:35;;;;;;;5.65;1.88;;;18.60;99.90;;;;;;5055615;28;20075;-74
2023/08/24 00:58:02;;;;;;;9.43;2.78;;;18.60;99.90;;;;;;5053905;28;20029;-74
2023/08/24 01:00:28;;;;;;;5.03;1.95;;;18.60;99.90;;;;;;5053162;28;20024;-74
2023/08/24 01:02:54;;;;;;;4.72;2.03;;;18.60;99.90;;;;;;5053907;28;20024;-74
2023/08/24 01:05:19;;;;;;;3.55;1.98;;;18.60;99.90;;;;;;5052205;28;20032;-74
2023/08/24 01:07:45;;;;;;;4.28;1.88;;;18.50;99.90;;;;;;5052541;28;20025;-74
2023/08/24 01:10:11;;;;;;;3.33;1.92;;;18.50;99.90;;;;;;5052782;28;20041;-74
2023/08/24 01:12:46;;;;;;;5.05;1.75;;;18.50;99.90;;;;;;5054953;28;20594;-74
2023/08/24 01:15:29;;;;;;;4.93;1.98;;;18.50;99.90;;;;;;5045655;28;20738;-74
2023/08/24 01:17:58;;;;;;;3.45;1.90;;;18.50;99.90;;;;;;5051217;28;20021;-74
2023/08/24 01:20:24;;;;;;;7.70;2.53;;;18.50;99.90;;;;;;5047511;28;20429;-74
2023/08/24 01:23:15;;;;;;;3.33;1.92;;;18.50;99.90;;;;;;5045986;28;20171;-74
2023/08/24 01:25:53;;;;;;;2.72;1.98;;;18.40;99.90;;;;;;5049360;28;20139;-74
2023/08/24 01:28:21;;;;;;;5.05;1.98;;;18.40;99.90;;;;;;5042947;28;20059;-74
2023/08/24 01:30:47;;;;;;;7.40;2.17;;;18.40;99.90;;;;;;5017097;28;20499;-74
2023/08/24 01:33:14;;;;;;;3.63;1.65;;;18.30;99.90;;;;;;5054522;28;20033;-74
2023/08/24 01:35:40;;;;;;;3.25;1.63;;;18.20;99.90;;;;;;5048224;28;20029;-74
2023/08/24 01:38:06;;;;;;;5.65;2.08;;;18.20;99.90;;;;;;5043902;28;20028;-74
2023/08/24 01:40:45;;;;;;;4.03;2.20;;;18.10;99.90;;;;;;5043399;28;20025;-74
2023/08/24 01:43:12;;;;;;;3.42;1.73;;;18.20;99.90;;;;;;5051460;28;20029;-74
2023/08/24 01:45:41;;;;;;;6.47;2.10;;;18.20;99.90;;;;;;5050046;28;20093;-74
2023/08/24 01:48:08;;;;;;;7.55;2.15;;;18.30;99.90;;;;;;5053074;28;20037;-74
2023/08/24 01:50:35;;;;;;;13.80;2.75;;;18.40;99.90;;;;;;5046300;28;20064;-74
2023/08/24 01:53:01;;;;;;;6.60;2.10;;;18.20;99.90;;;;;;5045193;28;20514;-73
2023/08/24 01:55:27;;;;;;;5.75;2.30;;;18.30;99.90;;;;;;5054003;28;20071;-74
2023/08/24 01:57:54;;;;;;;4.68;2.92;;;18.30;99.90;;;;;;5054122;28;20495;-74
2023/08/24 02:00:20;;;;;;;3.85;2.38;;;18.10;99.90;;;;;;5051916;28;20045;-74
2023/08/24 02:02:46;;;;;;;8.50;1.92;;;18.10;99.90;;;;;;5052550;28;20092;-74
2023/08/24 02:05:11;;;;;;;5.05;1.65;;;18.20;99.90;;;;;;5055666;28;20089;-74
2023/08/24 02:07:39;;;;;;;8.98;2.45;;;18.30;99.90;;;;;;5053298;28;20016;-74
2023/08/24 02:10:05;;;;;;;3.33;2.20;;;18.40;99.90;;;;;;5055874;28;20407;-74
2023/08/24 02:12:31;;;;;;;4.07;2.58;;;18.40;99.90;;;;;;5048598;28;20021;-74
2023/08/24 02:14:56;;;;;;;3.40;2.22;;;18.40;99.90;;;;;;5055323;28;20083;-74
2023/08/24 02:17:22;;;;;;;7.43;3.28;;;18.40;99.90;;;;;;5054187;28;20142;-74
2023/08/24 02:19:47;;;;;;;7.75;3.05;;;18.40;99.90;;;;;;5054836;28;20346;-74
2023/08/24 02:22:13;;;;;;;6.85;2.88;;;18.50;99.90;;;;;;5033393;28;20053;-73
2023/08/24 02:24:39;;;;;;;4.75;2.35;;;18.50;99.90;;;;;;5054618;28;20399;-73
2023/08/24 02:27:04;;;;;;;3.40;2.25;;;18.50;99.90;;;;;;5035866;28;20066;-73
2023/08/24 02:29:30;;;;;;;4.05;2.45;;;18.50;99.90;;;;;;5041518;28;20032;-73
2023/08/24 02:31:55;;;;;;;5.40;3.20;;;18.50;99.90;;;;;;5052443;28;20116;-74
2023/08/24 02:34:21;;;;;;;4.00;2.05;;;18.50;99.90;;;;;;5057543;28;20059;-74
2023/08/24 02:36:47;;;;;;;4.78;1.75;;;18.30;99.90;;;;;;5057954;28;20017;-74
2023/08/24 02:39:13;;;;;;;3.55;2.65;;;18.30;99.90;;;;;;5052471;28;20086;-74
2023/08/24 02:41:39;;;;;;;15.55;2.53;;;18.30;99.90;;;;;;5048891;28;20439;-73
2023/08/24 02:44:04;;;;;;;9.40;2.53;;;18.30;99.90;;;;;;5054943;28;20037;-74
2023/08/24 02:46:30;;;;;;;9.75;2.67;;;18.20;99.90;;;;;;5054558;28;20116;-74
2023/08/24 02:48:55;;;;;;;3.22;2.78;;;18.20;99.90;;;;;;5055634;28;20055;-74
2023/08/24 02:51:22;;;;;;;5.65;2.35;;;18.10;99.90;;;;;;5054256;28;20037;-72
2023/08/24 02:53:48;;;;;;;4.07;2.38;;;18.00;99.90;;;;;;5058424;28;20028;-72
2023/08/24 02:56:14;;;;;;;6.18;3.42;;;17.90;99.90;;;;;;5057740;28;20025;-72
2023/08/24 02:58:39;;;;;;;3.45;2.13;;;17.90;99.90;;;;;;5055766;28;20025;-74
2023/08/24 03:01:08;;;;;;;9.45;3.38;;;17.80;99.90;;;;;;5057222;28;20059;-73
2023/08/24 03:03:37;;;;;;;5.70;2.03;;;17.80;99.90;;;;;;5057793;28;20060;-73
2023/08/24 03:06:05;;;;;;;4.53;2.72;;;17.80;99.90;;;;;;5057563;28;20028;-74
2023/08/24 03:08:32;;;;;;;3.97;2.33;;;17.70;99.90;;;;;;5056059;28;20120;-74
2023/08/24 03:10:59;;;;;;;4.70;1.83;;;17.50;99.90;;;;;;5053047;28;20023;-74
2023/08/24 03:13:25;;;;;;;5.20;1.85;;;17.50;99.90;;;;;;5056863;28;20025;-74
2023/08/24 03:15:52;;;;;;;2.38;2.17;;;17.50;99.90;;;;;;5054564;28;20116;-74
2023/08/24 03:18:18;;;;;;;5.20;2.42;;;17.50;99.90;;;;;;5055977;28;20025;-74
2023/08/24 03:20:45;;;;;;;5.00;2.15;;;17.50;99.90;;;;;;5060990;28;20064;-75
2023/08/24 03:23:10;;;;;;;3.58;2.03;;;17.50;99.90;;;;;;5051277;28;20036;-75
2023/08/24 03:25:37;;;;;;;8.07;3.38;;;17.50;99.90;;;;;;5058900;28;20021;-75
2023/08/24 03:28:03;;;;;;;2.88;2.08;;;17.60;99.90;;;;;;5048357;28;20021;-75
2023/08/24 03:30:29;;;;;;;5.40;2.70;;;17.70;99.90;;;;;;5053858;28;20470;-74
2023/08/24 03:32:55;;;;;;;12.43;2.85;;;17.60;99.90;;;;;;5051190;28;20056;-75
2023/08/24 03:35:20;;;;;;;3.47;2.17;;;17.60;99.90;;;;;;5055162;28;20025;-74
2023/08/24 03:37:46;;;;;;;2.65;2.13;;;17.60;99.90;;;;;;5058979;28;20028;-74
2023/08/24 03:40:12;;;;;;;6.03;2.83;;;17.50;99.90;;;;;;5058783;28;20045;-74
2023/08/24 03:42:38;;;;;;;7.03;2.20;;;17.40;99.90;;;;;;5056055;28;20020;-74
2023/08/24 03:45:04;;;;;;;4.40;3.08;;;17.40;99.90;;;;;;5054568;28;20074;-74
2023/08/24 03:47:29;;;;;;;11.63;2.85;;;17.40;99.90;;;;;;5050027;28;20036;-74
2023/08/24 03:49:55;;;;;;;10.27;3.47;;;17.40;99.90;;;;;;5057328;28;20476;-74
2023/08/24 03:52:20;;;;;;;6.30;2.55;;;17.30;99.90;;;;;;5057136;28;20147;-74
2023/08/24 03:54:46;;;;;;;6.07;2.63;;;17.30;99.90;;;;;;5045896;28;20048;-74
2023/08/24 03:57:12;;;;;;;3.22;2.08;;;17.30;99.90;;;;;;5046372;28;20021;-74
2023/08/24 03:59:37;;;;;;;6.72;2.60;;;17.30;99.90;;;;;;5041505;28;20083;-74
2023/08/24 04:02:03;;;;;;;4.53;2.55;;;17.40;99.90;;;;;;5042976;28;20502;-74
2023/08/24 04:04:30;;;;;;;6.22;2.97;;;17.40;99.90;;;;;;5049183;28;20022;-74
2023/08/24 04:06:55;;;;;;;6.93;2.83;;;17.40;99.90;;;;;;5046788;28;20025;-74
2023/08/24 04:09:21;;;;;;;8.88;2.78;;;17.40;99.90;;;;;;5052060;28;20032;-74
2023/08/24 04:11:46;;;;;;;4.25;2.28;;;17.40;99.90;;;;;;5044616;28;20128;-73
2023/08/24 04:14:12;;;;;;;6.63;2.30;;;17.40;99.90;;;;;;5042615;28;20024;-74
2023/08/24 04:16:37;;;;;;;5.38;2.80;;;17.60;99.90;;;;;;5049022;28;20071;-74
2023/08/24 04:19:03;;;;;;;3.08;2.22;;;17.60;99.90;;;;;;5049194;28;20021;-74
2023/08/24 04:21:28;;;;;;;6.82;2.50;;;17.60;99.90;;;;;;5052179;28;20029;-74
2023/08/24 04:23:54;;;;;;;4.90;2.45;;;17.50;99.90;;;;;;5047098;28;20090;-74
2023/08/24 04:26:20;;;;;;;9.55;2.30;;;17.50;99.90;;;;;;5041300;28;20025;-73
2023/08/24 04:28:45;;;;;;;6.20;2.58;;;17.60;99.90;;;;;;5046770;28;20044;-74
2023/08/24 04:31:11;;;;;;;11.73;2.70;;;17.60;99.90;;;;;;5049082;28;20029;-74
2023/08/24 04:33:36;;;;;;;7.47;2.13;;;17.60;99.90;;;;;;5048395;28;20032;-74
2023/08/24 04:36:03;;;;;;;8.50;2.88;;;17.60;99.90;;;;;;5045006;28;20108;-74
2023/08/24 04:38:29;;;;;;;6.05;2.70;;;17.70;99.90;;;;;;5049847;28;20067;-74
2023/08/24 04:40:55;;;;;;;3.72;2.65;;;17.70;99.90;;;;;;5047746;28;20057;-74
2023/08/24 04:43:22;;;;;;;7.20;3.20;;;17.70;99.90;;;;;;5050019;28;20025;-74
2023/08/24 04:45:54;;;;;;;7.25;2.95;;;17.80;99.90;;;;;;5049411;28;20090;-74
2023/08/24 04:48:21;;;;;;;6.15;2.75;;;17.90;99.90;;;;;;5051196;28;20021;-74
2023/08/24 04:50:46;;;;;;;5.63;2.40;;;18.00;99.90;;;;;;5049468;28;20048;-74
2023/08/24 04:53:14;;;;;;;10.40;3.13;;;18.10;99.90;;;;;;5049050;28;20072;-74
2023/08/24 04:55:40;;;;;;;3.85;2.38;;;18.10;99.90;;;;;;5052141;28;20074;-74
2023/08/24 04:58:08;;;;;;;3.65;2.47;;;18.20;99.90;;;;;;5047834;28;20480;-74
2023/08/24 05:00:34;;;;;;;2.63;2.33;;;18.30;99.90;;;;;;5044513;28;20065;-74
2023/08/24 05:03:04;;;;;;;7.60;2.33;;;18.40;99.90;;;;;;5047798;28;20045;-74
2023/08/24 05:05:31;;;;;;;5.00;1.80;;;18.50;99.90;;;;;;5045421;28;20033;-73
2023/08/24 05:07:57;;;;;;;4.25;2.75;;;18.70;99.90;;;;;;5050675;28;20029;-73
2023/08/24 05:10:23;;;;;;;4.63;2.53;;;18.90;99.90;;;;;;5050694;28;20035;-73
2023/08/24 05:12:48;;;;;;;4.53;2.75;;;19.10;99.90;;;;;;5050948;28;20029;-75
2023/08/24 05:15:14;;;;;;;4.88;3.00;;;19.40;99.90;;;;;;5054785;28;20047;-74
2023/08/24 05:17:40;;;;;;;6.28;3.42;;;19.70;99.90;;;;;;5047542;28;20021;-74
2023/08/24 05:20:08;;;;;;;10.82;7.25;;;19.90;99.90;;;;;;5047666;28;20020;-75
2023/08/24 05:22:33;;;;;;;8.10;4.68;;;20.10;99.90;;;;;;5048502;28;20075;-74
2023/08/24 05:25:00;;;;;;;7.72;4.63;;;20.20;99.90;;;;;;5045867;28;20491;-74
2023/08/24 05:27:25;;;;;;;8.80;6.43;;;20.40;99.40;;;;;;5049918;28;20037;-74
2023/08/24 05:29:51;;;;;;;9.77;5.30;;;20.40;99.40;;;;;;5050595;28;20391;-74
2023/08/24 05:32:16;;;;;;;13.18;7.15;;;20.50;99.10;;;;;;5050267;28;20032;-74
2023/08/24 05:34:42;;;;;;;7.43;3.97;;;20.40;99.00;;;;;;5050365;28;20029;-74
2023/08/24 05:37:07;;;;;;;10.02;5.45;;;20.30;98.90;;;;;;5050288;28;20024;-74
2023/08/24 05:39:33;;;;;;;11.38;4.63;;;20.20;98.90;;;;;;5049095;28;20032;-74
2023/08/24 05:41:58;;;;;;;21.27;6.63;;;20.10;99.00;;;;;;5050525;28;20025;-74
2023/08/24 05:44:24;;;;;;;12.00;4.63;;;20.10;99.10;;;;;;5050429;28;20487;-74
2023/08/24 05:46:50;;;;;;;11.32;4.82;;;20.10;99.20;;;;;;5046791;28;20044;-74
2023/08/24 05:49:15;;;;;;;11.25;2.95;;;20.00;99.20;;;;;;5050019;28;20021;-74
2023/08/24 05:51:41;;;;;;;11.15;6.10;;;20.00;99.20;;;;;;5042882;28;20030;-74
2023/08/24 05:54:07;;;;;;;9.70;4.85;;;20.00;99.30;;;;;;5051001;28;20430;-74
2023/08/24 05:56:32;;;;;;;7.85;3.92;;;19.90;99.30;;;;;;5050584;28;20025;-74
2023/08/24 05:59:01;;;;;;;15.27;4.93;;;19.90;99.40;;;;;;5047663;28;20511;-77
2023/08/24 06:01:26;;;;;;;14.88;10.63;;;19.80;99.50;;;;;;5042883;28;20112;-73
2023/08/24 06:03:52;;;;;;;22.83;6.57;;;19.80;99.50;;;;;;5046381;28;20037;-73
2023/08/24 06:06:17;;;;;;;11.40;7.95;;;19.80;99.50;;;;;;5047227;28;20025;-73
2023/08/24 06:08:43;;;;;;;68.95;12.82;;;19.90;99.50;;;;;;5046979;28;20029;-73
2023/08/24 06:11:09;;;;;;;37.28;9.80;;;19.90;99.50;;;;;;5048982;28;20028;-74
2023/08/24 06:13:35;;;;;;;15.57;5.28;;;20.00;99.40;;;;;;5052847;28;20036;-74
2023/08/24 06:16:01;;;;;;;10.85;5.45;;;20.10;99.40;;;;;;5050785;28;20328;-74
2023/08/24 06:18:27;;;;;;;8.93;5.00;;;20.10;99.30;;;;;;5044466;28;20030;-73
2023/08/24 06:20:53;;;;;;;13.75;7.60;;;20.20;99.20;;;;;;5044547;28;20033;-73
2023/08/24 06:23:19;;;;;;;10.95;8.88;;;20.30;99.30;;;;;;5053566;28;20033;-74
2023/08/24 06:25:46;;;;;;;9.43;5.45;;;20.40;99.00;;;;;;5058968;28;20025;-74
2023/08/24 06:28:12;;;;;;;10.05;7.60;;;20.50;98.90;;;;;;5059528;28;20036;-75
2023/08/24 06:30:42;;;;;;;15.43;8.48;;;20.50;98.80;;;;;;5056176;28;20037;-73
2023/08/24 06:33:10;;;;;;;9.80;5.10;;;20.50;98.70;;;;;;5049589;28;20163;-74
2023/08/24 06:35:36;;;;;;;14.43;10.55;;;20.40;98.60;;;;;;5054300;28;20128;-74
2023/08/24 06:38:03;;;;;;;12.35;5.10;;;20.40;98.60;;;;;;5053674;28;20024;-74
2023/08/24 06:40:29;;;;;;;10.13;5.03;;;20.40;98.60;;;;;;5053130;28;20025;-74
2023/08/24 06:42:55;;;;;;;10.50;6.78;;;20.50;98.60;;;;;;5045936;28;20026;-73
2023/08/24 06:45:21;;;;;;;11.07;8.98;;;20.50;98.50;;;;;;5053504;28;20029;-74
2023/08/24 06:47:47;;;;;;;19.00;8.63;;;20.50;98.50;;;;;;5055411;28;20090;-74
2023/08/24 06:50:12;;;;;;;13.50;7.47;;;20.50;98.50;;;;;;5047950;28;20451;-74
2023/08/24 06:52:38;;;;;;;11.05;6.93;;;20.50;98.60;;;;;;5051735;28;20511;-74
2023/08/24 06:55:05;;;;;;;9.43;5.60;;;20.40;98.60;;;;;;5050101;28;20021;-74
2023/08/24 06:57:30;;;;;;;25.80;21.23;;;20.50;98.60;;;;;;5054028;28;20055;-75
2023/08/24 06:59:56;;;;;;;10.90;5.90;;;20.60;98.70;;;;;;5046085;28;20041;-75
2023/08/24 07:02:22;;;;;;;11.57;5.28;;;20.60;98.60;;;;;;5051403;28;20033;-77
2023/08/24 07:04:48;;;;;;;14.57;8.18;;;20.50;98.70;;;;;;5054057;28;20028;-76
2023/08/24 07:07:13;;;;;;;19.17;7.50;;;20.40;98.70;;;;;;5055191;28;20381;-75
2023/08/24 07:09:39;;;;;;;15.77;8.50;;;20.50;98.90;;;;;;5053683;28;20028;-77
2023/08/24 07:12:07;;;;;;;22.45;8.50;;;20.50;98.80;;;;;;5054420;28;20039;-75
2023/08/24 07:14:36;;;;;;;14.00;8.80;;;20.50;98.80;;;;;;5053378;28;20123;-75
2023/08/24 07:17:02;;;;;;;12.32;7.90;;;20.50;98.70;;;;;;5057038;28;20021;-75
2023/08/24 07:19:28;;;;;;;17.48;9.30;;;20.60;98.70;;;;;;5033025;28;20083;-75
2023/08/24 07:21:53;;;;;;;18.67;6.97;;;20.70;98.70;;;;;;5054633;28;20033;-75
2023/08/24 07:24:20;;;;;;;11.93;6.53;;;20.70;98.80;;;;;;5054749;28;20028;-76
2023/08/24 07:26:46;;;;;;;18.02;7.07;;;20.80;98.80;;;;;;5048385;28;20082;-77
2023/08/24 07:29:12;;;;;;;13.00;6.22;;;20.90;98.90;;;;;;5052577;28;20045;-76
2023/08/24 07:31:37;;;;;;;10.63;4.90;;;21.00;98.80;;;;;;5051800;28;20039;-76
2023/08/24 07:34:04;;;;;;;6.72;4.95;;;21.20;98.80;;;;;;5053083;28;20024;-75
2023/08/24 07:36:30;;;;;;;12.63;6.15;;;21.30;98.70;;;;;;5053387;28;20067;-76
2023/08/24 07:38:56;;;;;;;16.83;7.38;;;21.30;98.80;;;;;;5052329;28;20025;-75
2023/08/24 07:41:22;;;;;;;12.35;6.50;;;21.40;98.70;;;;;;5057315;28;20025;-75
2023/08/24 07:43:47;;;;;;;18.25;7.70;;;21.40;98.50;;;;;;5047521;28;20029;-75
2023/08/24 07:46:13;;;;;;;14.82;7.93;;;21.50;98.50;;;;;;5051513;28;20071;-74
2023/08/24 07:48:38;;;;;;;12.90;6.97;;;21.40;98.40;;;;;;5055134;28;20036;-75
2023/08/24 07:51:04;;;;;;;13.98;8.52;;;21.40;98.40;;;;;;5054894;28;20147;-75
2023/08/24 07:53:30;;;;;;;20.25;9.48;;;21.50;98.40;;;;;;5056693;28;20038;-73
2023/08/24 07:55:58;;;;;;;12.45;8.35;;;21.50;98.30;;;;;;5043752;28;20024;-75
2023/08/24 07:58:25;;;;;;;16.55;8.32;;;21.60;98.10;;;;;;5046075;28;20025;-75
2023/08/24 08:00:51;;;;;;;21.08;12.40;;;21.70;97.90;;;;;;5042311;28;20389;-75
2023/08/24 08:03:18;;;;;;;15.05;7.63;;;21.80;98.00;;;;;;5053677;28;20105;-75
2023/08/24 08:05:44;;;;;;;17.08;9.07;;;22.00;97.60;;;;;;5049479;28;20453;-75
2023/08/24 08:08:09;;;;;;;14.07;7.82;;;22.10;97.70;;;;;;5051678;28;20029;-75
2023/08/24 08:10:35;;;;;;;28.05;19.08;;;22.20;97.60;;;;;;5054904;28;20024;-75
2023/08/24 08:13:01;;;;;;;20.45;13.15;;;22.40;97.40;;;;;;5054127;28;20029;-76
2023/08/24 08:15:26;;;;;;;17.88;10.32;;;22.50;97.30;;;;;;5051331;28;20328;-76
2023/08/24 08:17:52;;;;;;;13.32;7.57;;;22.60;97.10;;;;;;5054357;28;20446;-75
2023/08/24 08:20:17;;;;;;;11.25;6.75;;;22.70;97.00;;;;;;5052874;28;20100;-76
2023/08/24 08:22:44;;;;;;;17.75;8.85;;;22.70;97.00;;;;;;5053428;28;20561;-75
2023/08/24 08:25:09;;;;;;;15.30;10.48;;;22.70;96.60;;;;;;5053569;28;20044;-75
2023/08/24 08:27:35;;;;;;;18.35;7.28;;;22.80;96.80;;;;;;5051557;28;20033;-75
2023/08/24 08:30:01;;;;;;;15.57;7.68;;;22.80;96.40;;;;;;5050875;28;20365;-75
2023/08/24 08:32:27;;;;;;;15.65;8.23;;;23.00;96.30;;;;;;5052794;28;20028;-74
2023/08/24 08:34:58;;;;;;;8.63;6.15;;;23.20;96.40;;;;;;5049191;28;20556;-77
2023/08/24 08:37:23;;;;;;;11.70;6.00;;;23.30;96.30;;;;;;5047778;28;20103;-77
2023/08/24 08:39:49;;;;;;;13.40;7.47;;;23.50;96.00;;;;;;5050265;28;20100;-75
2023/08/24 08:42:15;;;;;;;10.75;6.78;;;23.90;95.70;;;;;;5053441;28;20039;-76
2023/08/24 08:44:42;;;;;;;9.60;5.75;;;24.30;95.20;;;;;;5051706;28;20033;-75
2023/08/24 08:47:10;;;;;;;15.90;5.78;;;24.50;95.00;;;;;;5048974;28;20032;-76
2023/08/24 08:49:38;;;;;;;13.50;5.53;;;24.60;94.60;;;;;;5051899;28;20040;-75
2023/08/24 08:52:05;;;;;;;11.63;5.85;;;24.60;94.60;;;;;;5052382;28;20028;-75
2023/08/24 08:54:30;;;;;;;7.28;5.55;;;24.50;94.20;;;;;;5050478;28;20033;-76
2023/08/24 08:56:56;;;;;;;12.07;5.53;;;24.40;94.00;;;;;;5049935;28;20025;-74
2023/08/24 08:59:23;;;;;;;12.02;5.18;;;24.40;94.00;;;;;;5048755;28;20060;-74
2023/08/24 09:01:50;;;;;;;11.77;6.43;;;24.30;94.00;;;;;;5048586;28;20499;-75
2023/08/24 09:04:16;;;;;;;12.10;6.20;;;24.30;94.20;;;;;;5048990;28;20029;-75
2023/08/24 09:06:42;;;;;;;8.07;5.90;;;24.40;93.90;;;;;;5052167;28;20103;-74
2023/08/24 09:09:08;;;;;;;9.25;5.47;;;24.40;93.50;;;;;;5047099;28;20502;-76
2023/08/24 09:11:34;;;;;;;9.30;5.45;;;24.50;93.90;;;;;;5043246;28;20120;-76
2023/08/24 09:13:59;;;;;;;14.10;4.45;;;24.70;93.70;;;;;;5047366;28;20028;-76
2023/08/24 09:16:29;;;;;;;6.60;4.47;;;24.80;93.50;;;;;;5050237;28;20025;-75
2023/08/24 09:18:55;;;;;;;6.70;3.50;;;24.80;93.60;;;;;;5053119;28;20032;-75
2023/08/24 09:21:20;;;;;;;7.55;4.38;;;25.00;93.30;;;;;;5053320;28;20491;-75
2023/08/24 09:23:53;;;;;;;10.35;3.97;;;25.10;93.10;;;;;;5049180;28;20567;-75
2023/08/24 09:26:30;;;;;;;7.20;2.75;;;25.20;93.10;;;;;;5051619;28;20108;-75
2023/08/24 09:28:55;;;;;;;9.57;3.55;;;25.40;93.00;;;;;;5049038;28;20492;-74
2023/08/24 09:31:21;;;;;;;11.23;3.10;;;25.60;92.60;;;;;;5049463;28;20036;-74
2023/08/24 09:33:47;;;;;;;6.28;3.20;;;25.60;92.10;;;;;;5050050;28;20021;-74
2023/08/24 09:36:14;;;;;;;6.63;3.75;;;25.60;91.90;;;;;;5050772;28;20024;-74
2023/08/24 09:38:47;;;;;;;6.95;2.88;;;25.70;91.90;;;;;;5050223;28;20403;-74
2023/08/24 09:41:13;;;;;;;8.02;4.32;;;25.80;91.70;;;;;;5048854;28;20017;-74
2023/08/24 09:43:40;;;;;;;6.20;3.47;;;25.90;91.80;;;;;;5051211;28;20174;-73
2023/08/24 09:46:07;;;;;;;6.10;3.05;;;25.80;91.70;;;;;;5051397;28;20029;-74
2023/08/24 09:48:33;;;;;;;3.88;3.00;;;25.80;91.20;;;;;;5051968;28;20115;-74
2023/08/24 09:51:03;;;;;;;5.63;3.15;;;25.80;91.70;;;;;;5052543;28;20528;-75
2023/08/24 09:53:36;;;;;;;8.70;2.78;;;26.10;91.70;;;;;;5048781;28;20040;-74
2023/08/24 09:56:03;;;;;;;3.22;2.53;;;26.20;89.70;;;;;;5060946;28;20512;-75
2023/08/24 09:58:29;;;;;;;9.13;3.10;;;26.10;88.30;;;;;;5048479;28;20039;-76
2023/08/24 10:00:56;;;;;;;4.50;2.55;;;26.00;88.00;;;;;;5048044;28;20519;-75
2023/08/24 10:03:25;;;;;;;5.78;3.05;;;26.00;88.60;;;;;;5039751;28;20056;-75
2023/08/24 10:05:53;;;;;;;11.43;6.57;;;26.10;88.70;;;;;;5051830;28;20033;-74
2023/08/24 10:08:27;;;;;;;9.63;4.68;;;26.20;89.00;;;;;;5046354;28;20021;-75
2023/08/24 10:10:55;;;;;;;8.73;4.32;;;26.20;88.70;;;;;;5050056;28;20033;-75
2023/08/24 10:13:38;;;;;;;6.30;3.47;;;26.40;88.70;;;;;;5057105;28;20040;-74
2023/08/24 10:16:05;;;;;;;26.40;5.07;;;26.50;88.80;;;;;;5044764;28;20032;-74
2023/08/24 10:18:31;;;;;;;2.95;2.40;;;26.70;89.40;;;;;;5051275;28;20032;-75
2023/08/24 10:20:57;;;;;;;9.32;2.63;;;27.00;88.60;;;;;;5050474;28;20028;-73
2023/08/24 10:23:23;;;;;;;7.22;3.50;;;27.10;87.60;;;;;;5047191;28;20033;-75
2023/08/24 10:25:52;;;;;;;6.90;2.72;;;27.30;88.60;;;;;;5050711;28;20391;-74
2023/08/24 10:28:19;;;;;;;4.57;2.45;;;27.40;86.40;;;;;;5050662;28;20013;-75
2023/08/24 10:30:46;;;;;;;7.03;2.92;;;27.40;86.20;;;;;;5042476;28;20033;-75
2023/08/24 10:33:13;;;;;;;5.03;2.28;;;27.50;85.70;;;;;;5045189;28;20055;-74
2023/08/24 10:35:40;;;;;;;4.32;2.58;;;27.40;84.80;;;;;;5050468;28;20017;-75
2023/08/24 10:38:06;;;;;;;3.58;2.20;;;27.30;83.70;;;;;;5049537;28;20056;-75
2023/08/24 10:40:33;;;;;;;5.15;2.35;;;27.10;83.50;;;;;;5052328;28;20057;-75
2023/08/24 10:43:03;;;;;;;11.55;4.95;;;27.10;85.20;;;;;;5049543;28;20487;-74
2023/08/24 10:45:58;;;;;;;7.93;3.40;;;27.20;84.50;;;;;;5042713;28;20029;-75
2023/08/24 10:48:24;;;;;;;5.45;3.10;;;27.40;85.30;;;;;;5039558;28;20444;-79
2023/08/24 10:51:16;;;;;;;3.45;2.15;;;27.40;84.90;;;;;;5045330;28;20025;-76
2023/08/24 10:53:44;;;;;;;4.80;2.33;;;27.50;84.50;;;;;;5048554;28;20061;-79
2023/08/24 10:56:17;;;;;;;7.50;2.55;;;27.50;82.90;;;;;;5045809;28;20036;-77
2023/08/24 10:58:44;;;;;;;6.80;3.08;;;27.50;84.30;;;;;;5056962;28;20032;-78
2023/08/24 11:01:19;;;;;;;4.80;2.72;;;27.70;83.90;;;;;;5053401;28;20029;-78
2023/08/24 11:03:55;;;;;;;7.40;3.45;;;27.80;82.00;;;;;;5049915;28;20479;-78
2023/08/24 11:06:28;;;;;;;7.00;2.00;;;27.80;82.00;;;;;;5055138;28;20105;-77
2023/08/24 11:09:13;;;;;;;6.13;2.30;;;27.90;80.60;;;;;;5051503;28;20465;-76
2023/08/24 11:11:40;;;;;;;7.40;2.87;;;28.00;81.40;;;;;;5049371;28;20072;-77
2023/08/24 11:14:17;;;;;;;6.95;3.17;;;28.10;81.30;;;;;;5045865;28;20661;-76
2023/08/24 11:16:44;;;;;;;12.77;4.25;;;28.30;81.00;;;;;;5049414;28;20032;-75
2023/08/24 11:19:12;;;;;;;7.30;2.42;;;28.40;80.30;;;;;;5050385;28;20069;-75
2023/08/24 11:21:39;;;;;;;4.57;2.13;;;28.50;81.70;;;;;;5040744;28;20034;-76
2023/08/24 11:24:05;;;;;;;3.75;2.08;;;28.80;80.60;;;;;;5049867;28;20446;-76
2023/08/24 11:26:31;;;;;;;6.18;3.13;;;28.60;77.90;;;;;;5051075;28;20043;-79
2023/08/24 11:28:57;;;;;;;5.22;2.40;;;28.60;78.60;;;;;;5049050;28;20534;-75
2023/08/24 11:31:23;;;;;;;4.47;2.50;;;28.60;78.10;;;;;;5045511;28;20028;-77
2023/08/24 11:33:55;;;;;;;5.10;1.92;;;28.60;77.10;;;;;;5046274;28;20056;-76
2023/08/24 11:36:20;;;;;;;4.88;2.58;;;28.70;76.70;;;;;;5053921;28;20027;-77
2023/08/24 11:38:47;;;;;;;7.45;2.85;;;28.30;74.60;;;;;;5047063;28;20025;-75
2023/08/24 11:41:14;;;;;;;3.88;1.70;;;28.00;75.40;;;;;;5050791;28;20043;-76
2023/08/24 11:43:39;;;;;;;11.18;3.17;;;27.90;76.30;;;;;;5045537;28;20037;-74
2023/08/24 11:48:39;;;;;;;7.97;2.72;;;28.20;77.20;;;;;;5039119;28;20041;-74
2023/08/24 11:51:14;;;;;;;9.43;3.40;;;28.40;76.00;;;;;;5036840;28;20028;-71
2023/08/24 11:53:44;;;;;;;5.65;2.65;;;28.60;75.90;;;;;;5039689;28;20159;-74
2023/08/24 11:56:11;;;;;;;5.85;2.10;;;28.70;75.10;;;;;;5029532;28;20414;-76
2023/08/24 11:58:40;;;;;;;6.75;2.42;;;29.00;74.50;;;;;;5040257;28;20468;-75
2023/08/24 12:01:09;;;;;;;5.20;1.83;;;29.20;73.00;;;;;;5019463;28;20121;-76
2023/08/24 12:03:36;;;;;;;18.85;2.33;;;29.30;74.80;;;;;;5022684;28;20055;-72
2023/08/24 12:06:04;;;;;;;2.67;2.05;;;29.50;73.50;;;;;;5028644;28;20032;-72
2023/08/24 12:08:30;;;;;;;4.47;1.48;;;29.50;73.70;;;;;;5027611;28;20060;-72
2023/08/24 12:10:55;;;;;;;6.22;4.60;;;29.30;71.60;;;;;;5020177;28;20140;-73
2023/08/24 12:13:22;;;;;;;3.88;2.47;;;29.20;70.50;;;;;;5037526;28;20065;-72
2023/08/24 12:15:50;;;;;;;3.03;1.90;;;29.10;72.30;;;;;;5028162;28;20025;-73
2023/08/24 12:18:16;;;;;;;3.20;1.98;;;29.00;71.50;;;;;;5035051;28;20033;-72
2023/08/24 12:20:41;;;;;;;3.63;1.83;;;29.00;72.40;;;;;;5030857;28;20033;-73
2023/08/24 12:23:08;;;;;;;5.85;2.15;;;29.20;72.70;;;;;;5038019;28;20117;-73
2023/08/24 12:25:43;;;;;;;2.95;2.40;;;29.20;71.40;;;;;;5041290;28;20626;-73
2023/08/24 12:28:13;;;;;;;2.67;1.98;;;29.20;72.00;;;;;;5037325;28;20114;-72
2023/08/24 12:30:52;;;;;;;4.82;1.95;;;29.40;72.30;;;;;;5035690;28;20033;-71
2023/08/24 12:33:25;;;;;;;3.42;1.67;;;29.60;71.40;;;;;;5036304;28;20084;-72
2023/08/24 12:35:51;;;;;;;8.75;2.53;;;29.50;70.00;;;;;;5042538;28;20075;-72
2023/08/24 12:38:17;;;;;;;3.25;1.85;;;29.50;71.80;;;;;;5027241;28;20036;-73
2023/08/24 12:40:43;;;;;;;6.15;1.80;;;29.60;71.40;;;;;;5029757;28;20104;-72
2023/08/24 12:43:08;;;;;;;6.85;1.80;;;29.60;71.10;;;;;;5046165;28;20028;-73
2023/08/24 12:45:34;;;;;;;2.33;1.45;;;29.70;69.70;;;;;;5028240;28;20442;-73